Time;durP1;ratioP1;P1;durP2;ratioP2;P2;SDS_P1;SDS_P2;PMS_P1;PMS_P2;Temp;Humidity;BMP_temperature;BMP_pressure;BME280_temperature;BME280_humidity;BME280_pressure;Samples;Min_cycle;Max_cycle;Signal;HPM_P1;HPM_P2
2023/05/10 00:08:40;;;;;;;;;;;;;;;16.38;91.80;100792.13;20697162;28;19930;-55
2023/05/10 00:19:01;;;;;;;;;;;;;;;16.37;92.00;100787.81;20697546;28;20000;-54
2023/05/10 00:29:23;;;;;;;;;;;;;;;16.42;97.13;100783.22;20704158;28;19934;-55
2023/05/10 00:39:44;;;;;;;;;;;;;;;16.36;91.14;100775.69;20715822;28;19929;-56
2023/05/10 00:50:06;;;;;;;;;;;;;;;16.30;92.29;100770.78;20703255;28;19933;-56
2023/05/10 01:00:27;;;;;;;;;;;;;;;16.29;92.40;100750.84;20698152;28;19937;-56
2023/05/10 01:10:49;;;;;;;;;;;;;;;16.22;93.96;100743.44;20710300;28;19955;-54
2023/05/10 01:21:15;;;;;;;;;;;;;;;16.18;98.20;100737.53;20709296;28;19984;-54
2023/05/10 01:31:55;;;;;;;;;;;;;;;16.12;93.79;100743.06;20709801;28;19940;-56
2023/05/10 01:42:23;;;;;;;;;;;;;;;16.10;94.89;100739.69;20708599;28;19929;-54
2023/05/10 01:52:47;;;;;;;;;;;;;;;16.05;94.10;100737.34;20709655;28;19929;-54
2023/05/10 02:03:10;;;;;;;;;;;;;;;16.03;92.99;100740.97;20707021;28;19925;-55
2023/05/10 02:13:33;;;;;;;;;;;;;;;15.95;94.54;100733.53;20691784;28;19929;-56
2023/05/10 02:23:55;;;;;;;;;;;;;;;15.95;94.34;100740.56;20703343;28;19929;-54
2023/05/10 02:34:16;;;;;;;;;;;;;;;15.95;94.67;100751.00;20710370;28;19980;-56
2023/05/10 02:44:38;;;;;;;;;;;;;;;15.87;93.39;100748.78;20703570;28;19988;-56
2023/05/10 02:55:02;;;;;;;;;;;;;;;15.93;93.56;100750.22;20699306;28;19948;-55
2023/05/10 03:05:24;;;;;;;;;;;;;;;15.97;93.39;100736.91;20690570;28;19930;-56
2023/05/10 03:15:57;;;;;;;;;;;;;;;15.98;99.23;100738.63;20692819;28;19930;-55
2023/05/10 03:26:26;;;;;;;;;;;;;;;15.91;94.69;100741.63;20696040;28;19925;-55
2023/05/10 03:36:48;;;;;;;;;;;;;;;15.88;94.91;100742.63;20710570;28;19980;-54
2023/05/10 03:47:09;;;;;;;;;;;;;;;15.82;93.74;100755.16;20704238;28;19980;-56
2023/05/10 03:57:31;;;;;;;;;;;;;;;15.60;91.14;100757.22;20716111;28;20447;-54
2023/05/10 04:07:52;;;;;;;;;;;;;;;15.46;96.87;100757.06;20707566;28;19925;-53
2023/05/10 04:18:14;;;;;;;;;;;;;;;15.35;91.81;100748.91;20696051;28;19980;-55
2023/05/10 04:28:35;;;;;;;;;;;;;;;15.32;97.86;100765.56;20722707;28;19929;-56
2023/05/10 04:38:56;;;;;;;;;;;;;;;15.21;93.31;100765.25;20714044;28;19925;-54
2023/05/10 04:49:18;;;;;;;;;;;;;;;15.13;91.77;100776.06;20716426;28;20067;-55
2023/05/10 04:59:39;;;;;;;;;;;;;;;14.86;90.04;100790.44;20704402;28;19969;-55
2023/05/10 05:10:00;;;;;;;;;;;;;;;14.59;92.80;100807.41;20713796;28;19972;-55
2023/05/10 05:20:22;;;;;;;;;;;;;;;14.56;93.61;100822.31;20702786;28;20064;-55
2023/05/10 05:30:44;;;;;;;;;;;;;;;14.57;96.02;100827.44;20697344;28;19926;-54
2023/05/10 05:41:05;;;;;;;;;;;;;;;14.52;92.08;100826.78;20685998;28;19969;-55
2023/05/10 05:51:27;;;;;;;;;;;;;;;14.57;94.21;100839.63;20693342;28;19948;-54
2023/05/10 06:01:48;;;;;;;;;;;;;;;14.59;92.55;100846.47;20706640;28;19996;-53
2023/05/10 06:12:11;;;;;;;;;;;;;;;14.66;92.62;100850.47;20682060;28;19930;-53
2023/05/10 06:22:32;;;;;;;;;;;;;;;14.67;92.41;100857.34;20687776;28;19961;-54
2023/05/10 06:32:54;;;;;;;;;;;;;;;14.66;92.10;100873.06;20692365;28;19937;-54
2023/05/10 06:43:16;;;;;;;;;;;;;;;14.70;92.30;100892.84;20692710;28;19976;-56
2023/05/10 06:53:37;;;;;;;;;;;;;;;14.78;89.32;100894.16;20687031;28;19933;-56
2023/05/10 07:03:59;;;;;;;;;;;;;;;14.75;90.41;100891.72;20707971;28;20021;-56
2023/05/10 07:14:20;;;;;;;;;;;;;;;14.77;90.57;100896.84;20691824;28;20331;-55
2023/05/10 07:24:42;;;;;;;;;;;;;;;14.76;91.55;100906.41;20695013;28;19933;-55
2023/05/10 07:35:03;;;;;;;;;;;;;;;14.82;90.58;100910.50;20685699;28;19925;-55
2023/05/10 07:45:25;;;;;;;;;;;;;;;14.79;90.87;100919.31;20707125;28;19991;-54
2023/05/10 07:55:50;;;;;;;;;;;;;;;14.79;88.36;100921.94;20721356;28;19929;-55
2023/05/10 08:06:11;;;;;;;;;;;;;;;14.87;89.80;100930.22;20719729;28;19980;-55
2023/05/10 08:16:34;;;;;;;;;;;;;;;14.83;91.33;100936.47;20702126;28;19925;-55
2023/05/10 08:26:55;;;;;;;;;;;;;;;14.83;88.93;100944.28;20704742;28;19929;-54
2023/05/10 08:37:16;;;;;;;;;;;;;;;14.90;92.04;100953.56;20696964;28;20055;-54
2023/05/10 08:47:38;;;;;;;;;;;;;;;14.96;90.76;100962.84;20706597;28;19925;-56
2023/05/10 08:58:00;;;;;;;;;;;;;;;14.93;90.26;100965.56;20696207;28;19980;-56
2023/05/10 09:08:25;;;;;;;;;;;;;;;14.77;91.82;100981.06;20690206;28;19957;-56
2023/05/10 09:18:46;;;;;;;;;;;;;;;14.87;93.95;100982.34;20707431;28;20361;-56
2023/05/10 09:29:08;;;;;;;;;;;;;;;14.85;91.43;100994.59;20617273;28;1788902;-56
2023/05/10 09:39:33;;;;;;;;;;;;;;;14.81;92.25;100992.19;20713400;28;19934;-57
2023/05/10 09:49:57;;;;;;;;;;;;;;;14.88;94.03;101004.03;20701153;28;20003;-56
2023/05/10 10:00:19;;;;;;;;;;;;;;;14.94;92.70;101016.78;20704181;28;19933;-57
2023/05/10 10:10:41;;;;;;;;;;;;;;;15.44;94.97;101014.50;20693261;28;19925;-55
2023/05/10 10:21:02;;;;;;;;;;;;;;;15.47;89.93;101020.44;20695941;28;19972;-55
2023/05/10 10:31:41;;;;;;;;;;;;;;;15.35;91.62;101035.75;20708498;28;19930;-56
2023/05/10 10:42:04;;;;;;;;;;;;;;;15.21;91.00;101043.38;20712928;28;19940;-56
2023/05/10 10:52:29;;;;;;;;;;;;;;;15.31;92.18;101045.47;20699731;28;19952;-55
2023/05/10 11:02:56;;;;;;;;;;;;;;;15.32;92.55;101047.19;20688332;28;19925;-55
2023/05/10 11:13:27;;;;;;;;;;;;;;;15.36;90.59;101056.56;20690365;28;19936;-55
2023/05/10 11:23:58;;;;;;;;;;;;;;;15.36;90.67;101068.75;20701405;28;19929;-54
2023/05/10 11:34:23;;;;;;;;;;;;;;;15.17;91.45;101079.16;20700065;28;19998;-54
2023/05/10 11:44:45;;;;;;;;;;;;;;;15.01;91.85;101091.19;20703598;28;19933;-54
2023/05/10 11:55:07;;;;;;;;;;;;;;;15.10;91.06;101114.25;20702128;28;19930;-55
2023/05/10 12:05:31;;;;;;;;;;;;;;;15.07;93.78;101122.22;20687266;28;20385;-53
2023/05/10 12:15:52;;;;;;;;;;;;;;;14.98;89.22;101146.88;20698458;28;19938;-55
2023/05/10 12:26:14;;;;;;;;;;;;;;;14.97;91.02;101155.63;20716374;28;20258;-54
2023/05/10 12:36:38;;;;;;;;;;;;;;;15.09;91.66;101162.91;20711735;28;19933;-56
2023/05/10 12:46:59;;;;;;;;;;;;;;;15.28;90.13;101165.56;20702495;28;20029;-54
2023/05/10 12:57:21;;;;;;;;;;;;;;;15.34;90.04;101183.56;20703301;28;20375;-56
2023/05/10 13:07:43;;;;;;;;;;;;;;;15.66;89.11;101182.13;20716028;28;20343;-56
2023/05/10 13:18:05;;;;;;;;;;;;;;;15.98;89.60;101168.47;20695772;28;20281;-56
2023/05/10 13:28:26;;;;;;;;;;;;;;;16.20;89.52;101179.59;20695102;28;20431;-56
2023/05/10 13:38:48;;;;;;;;;;;;;;;16.05;90.25;101186.41;20708024;28;20075;-56
2023/05/10 13:49:09;;;;;;;;;;;;;;;16.03;87.44;101208.25;20707203;28;19926;-56
2023/05/10 13:59:33;;;;;;;;;;;;;;;16.38;87.48;101207.47;20697580;28;19930;-55
2023/05/10 14:09:55;;;;;;;;;;;;;;;16.48;84.04;101206.09;20696623;28;19929;-54
2023/05/10 14:20:16;;;;;;;;;;;;;;;16.22;87.51;101221.31;20700555;28;19952;-56
2023/05/10 14:30:38;;;;;;;;;;;;;;;16.12;83.78;101231.34;20709292;28;19929;-55
2023/05/10 14:40:59;;;;;;;;;;;;;;;16.07;87.20;101231.56;20700005;28;20466;-57
2023/05/10 14:51:21;;;;;;;;;;;;;;;16.20;86.85;101226.63;20692090;28;19973;-56
2023/05/10 15:01:43;;;;;;;;;;;;;;;16.21;84.28;101249.19;20704723;28;19933;-54
2023/05/10 15:12:05;;;;;;;;;;;;;;;16.09;84.90;101247.16;20698236;28;19958;-56
2023/05/10 15:22:28;;;;;;;;;;;;;;;16.11;84.22;101248.75;20697418;28;19929;-57
2023/05/10 15:32:49;;;;;;;;;;;;;;;16.20;84.15;101252.72;20688624;28;19925;-57
2023/05/10 15:43:10;;;;;;;;;;;;;;;16.25;84.02;101271.63;20701640;28;19925;-56
2023/05/10 15:53:32;;;;;;;;;;;;;;;16.37;84.25;101275.44;20700344;28;19973;-55
2023/05/10 16:03:53;;;;;;;;;;;;;;;16.53;84.63;101279.91;20704294;28;19934;-55
2023/05/10 16:14:15;;;;;;;;;;;;;;;16.68;81.31;101296.63;20709079;28;20002;-56
2023/05/10 16:24:36;;;;;;;;;;;;;;;16.67;83.11;101303.63;20713832;28;19981;-56
2023/05/10 16:34:58;;;;;;;;;;;;;;;17.07;80.37;101305.16;20715825;28;19933;-57
2023/05/10 16:45:19;;;;;;;;;;;;;;;16.99;80.65;101307.31;20696884;28;19967;-57
2023/05/10 16:55:41;;;;;;;;;;;;;;;17.23;81.53;101316.56;20710483;28;19933;-56
2023/05/10 17:06:04;;;;;;;;;;;;;;;16.91;80.87;101323.38;20704639;28;19930;-55
2023/05/10 17:16:25;;;;;;;;;;;;;;;16.63;81.89;101330.81;20692521;28;19952;-56
2023/05/10 17:26:47;;;;;;;;;;;;;;;16.67;82.20;101342.81;20700472;28;20600;-55
2023/05/10 17:37:08;;;;;;;;;;;;;;;16.66;81.44;101356.81;20697798;28;19929;-55
2023/05/10 17:47:30;;;;;;;;;;;;;;;16.50;82.69;101366.25;20699974;28;20462;-55
2023/05/10 17:57:51;;;;;;;;;;;;;;;16.40;81.84;101359.75;20710679;28;19926;-57
2023/05/10 18:08:13;;;;;;;;;;;;;;;16.34;81.30;101380.91;20704343;28;19995;-56
2023/05/10 18:18:34;;;;;;;;;;;;;;;16.24;84.56;101379.66;20687685;28;19969;-57
2023/05/10 18:28:56;;;;;;;;;;;;;;;16.13;83.73;101387.94;20703339;28;20353;-57
2023/05/10 18:39:21;;;;;;;;;;;;;;;16.08;83.44;101402.09;20696254;28;20312;-57
2023/05/10 18:49:44;;;;;;;;;;;;;;;15.93;86.49;101410.63;20701174;28;19929;-57
2023/05/10 19:00:07;;;;;;;;;;;;;;;15.87;84.26;101426.53;20688824;28;19933;-57
2023/05/10 19:10:29;;;;;;;;;;;;;;;15.84;84.17;101437.09;20694804;28;19993;-55
2023/05/10 19:20:52;;;;;;;;;;;;;;;15.76;89.15;101457.44;20688282;28;19953;-57
2023/05/10 19:31:15;;;;;;;;;;;;;;;15.59;88.53;101467.72;20710456;28;19929;-57
2023/05/10 19:41:37;;;;;;;;;;;;;;;15.52;89.96;101472.34;20712962;28;20055;-56
2023/05/10 19:51:58;;;;;;;;;;;;;;;15.43;88.83;101483.16;20718043;28;19930;-57
2023/05/10 20:02:20;;;;;;;;;;;;;;;15.40;89.53;101483.22;20718676;28;19975;-56
2023/05/10 20:12:48;;;;;;;;;;;;;;;15.32;89.26;101487.03;20713223;28;19983;-56
2023/05/10 20:23:09;;;;;;;;;;;;;;;15.20;89.01;101479.69;20716215;28;19926;-55
2023/05/10 20:33:31;;;;;;;;;;;;;;;15.16;89.78;101488.53;20705973;28;19929;-55
2023/05/10 20:43:52;;;;;;;;;;;;;;;15.04;92.66;101495.91;20701526;28;20374;-55
2023/05/10 20:54:14;;;;;;;;;;;;;;;14.91;90.17;101494.66;20704983;28;19929;-55
2023/05/10 21:04:35;;;;;;;;;;;;;;;14.82;89.56;101500.22;20710516;28;19926;-56
2023/05/10 21:14:56;;;;;;;;;;;;;;;14.72;92.17;101501.44;20706622;28;20008;-55
2023/05/10 21:25:18;;;;;;;;;;;;;;;14.67;91.74;101516.41;20692309;28;20221;-57
2023/05/10 21:35:41;;;;;;;;;;;;;;;14.71;90.74;101515.41;20708795;28;19934;-56
2023/05/10 21:46:03;;;;;;;;;;;;;;;14.72;91.89;101513.66;20693237;28;20115;-54
2023/05/10 21:56:24;;;;;;;;;;;;;;;14.71;91.66;101527.56;20698193;28;20660;-57
2023/05/10 22:06:46;;;;;;;;;;;;;;;14.66;92.13;101524.28;20704172;28;19926;-55
2023/05/10 22:17:08;;;;;;;;;;;;;;;14.63;91.22;101527.00;20693443;28;20444;-55
2023/05/10 22:27:29;;;;;;;;;;;;;;;14.57;90.97;101520.25;20695778;28;20344;-55
2023/05/10 22:37:50;;;;;;;;;;;;;;;14.62;89.13;101536.56;20690315;28;20309;-54
2023/05/10 22:48:13;;;;;;;;;;;;;;;14.54;90.05;101546.41;20700800;28;20053;-56
2023/05/10 22:58:34;;;;;;;;;;;;;;;14.53;90.55;101549.91;20702857;28;19955;-56
2023/05/10 23:08:56;;;;;;;;;;;;;;;14.46;92.44;101548.44;20697594;28;19981;-55
2023/05/10 23:19:17;;;;;;;;;;;;;;;14.38;91.53;101545.22;20696408;28;19926;-55
2023/05/10 23:29:39;;;;;;;;;;;;;;;14.26;91.73;101545.63;20699378;28;19933;-55
2023/05/10 23:40:00;;;;;;;;;;;;;;;14.11;92.12;101533.09;20689021;28;19960;-56
2023/05/10 23:50:22;;;;;;;;;;;;;;;13.96;95.50;101544.00;20683832;28;19946;-54
